Aérodrome :
LOGIN :

S'inscrire | Disclaimer

   EN    FR    IT 

 










Légende :    VFR   VFR Marginal   IFR   IFR Intensif   IFR Très Intensif
Visi : 
Plafond : 
>= 8 km
>= 3000ft
5 à 8 km
1000 à 3000 ft
1500m à 5 km
500 à 1000 ft
800 à 1500m
200 à 500 ft
< 800m
< 200 ft
Symboles :   Orages  Brouillard  Fortes neiges  Fortes précipitations  Vent > 20 kt
SIGMETs :   Divers  Orages  Givrage  Turbulence  Onde Orograph.  Cendres Volcan.






- Altitude de l'aérodrome : 287 ft


LFRL - Lanveoc Poulmic

DERNIER METAR :
  • 212300Z AUTO 21013KT 9999 OVC016 09/06 Q1028

METARs EXPIRÉS :
  • 212230Z AUTO 21013KT 9999 OVC017 09/06 Q1028
  • 212200Z AUTO 21016KT 9999 OVC017 09/06 Q1028
  • 212130Z AUTO 21015KT 9999 OVC018 09/06 Q1028

TAF TAF LFRL
Valide du 21 à 12h jusqu'au 22 à 12h UTC


211100Z 2112/2212 22014G24KT 9999 BKN025
BECMG 2121/2123 OVC010
BECMG 2205/2207 OVC005
TEMPO 2209/2212 3000 -RADZ BKN004
PROB30
TEMPO 2210/2212 0900 FG VV///



MET'MAP, la Météo Aéronautique d'un coup d'oeil ! - Copyright ORBIFLY Décembre 2007 - Disclaimer

ORBIFLY MET'MAP TEAM :

Programmation & Développement : Alexandra Zaïnal
Sur une idée originale de : Baudouin d'Aumeries
Assistance à la programmation : Marc-Olivier Méhu
Soutien technique & logistique : Manuel Goepfert

Contact : metmap@orbifly.com




SOURCES & CREDITS :

   NOAA